Latest Weather Observations for Kilmore Gap

IDV60801

Issued at 11:35 pm EST Thursday 24 April 2014 (issued every 30 minutes, with the page automatically refreshed every 10 minutes)

About weather observations | Map of weather stations | Latest weather observations for VIC | Other Formats
Station Details ID: 088162 Name: KILMORE GAP Lat: -37.38 Lon: 144.97 Height: 527.8 m
Data from the previous 72 hours. | See also: Recent months at Kilmore Gap
Date/Time
EST
Temp
°C
App
Temp
°C
Dew
Point
Rel
Hum
%
Delta-T
°C
Wind Press
QNH
hPa
Press
MSL
hPa
Rain
since 9 am
mm
Dir
 
Spd
km/h
Gust
km/h
Spd
kts
Gust
kts
24/11:30pm 6.5 1.7 4.7 88 0.8 SSE 19 22 10 12 1020.9 - 0.4
24/11:00pm 6.6 1.6 4.6 87 0.9 SSE 20 24 11 13 1021.1 - 0.4
24/10:30pm 6.6 1.8 4.8 88 0.8 SSE 19 22 10 12 1021.2 - 0.4
24/10:00pm 6.7 1.8 5.2 90 0.7 SSE 20 26 11 14 1021.0 - 0.4
24/09:30pm 6.4 2.4 4.9 90 0.7 SSE 15 20 8 11 1020.8 - 0.4
24/09:00pm 7.4 2.6 5.5 88 0.9 SSE 20 26 11 14 1020.6 1020.1 0.4
24/08:30pm 7.2 3.7 5.3 88 0.9 SSE 13 19 7 10 1020.4 - 0.4
24/08:00pm 7.4 3.8 5.2 86 1.0 SSE 13 19 7 10 1020.1 - 0.4
24/07:30pm 7.5 3.9 5.1 85 1.1 S 13 17 7 9 1020.0 - 0.4
24/07:00pm 7.7 3.7 4.7 81 1.4 S 15 20 8 11 1019.8 - 0.4
24/06:30pm 8.5 3.9 3.9 73 2.1 S 17 22 9 12 1019.4 - 0.4
24/06:00pm 8.8 4.7 2.4 64 2.8 S 13 19 7 10 1019.2 1018.7 0.4
24/05:30pm 9.7 5.6 2.3 60 3.2 SSE 13 17 7 9 1018.6 - 0.4
24/05:00pm 11.0 7.0 2.6 56 3.7 S 13 24 7 13 1018.2 - 0.4
24/04:30pm 11.6 6.3 1.8 51 4.3 S 19 26 10 14 1018.0 - 0.4
24/04:00pm 12.2 6.7 1.8 49 4.6 S 20 30 11 16 1017.8 - 0.4
24/03:30pm 12.5 7.2 2.9 52 4.4 S 20 33 11 18 1017.6 - 0.4
24/03:00pm 12.7 6.7 3.1 52 4.4 S 24 35 13 19 1017.3 1016.8 0.4
24/02:30pm 12.6 6.0 2.2 49 4.7 SSW 26 35 14 19 1017.1 - 0.4
24/02:00pm 12.5 6.3 2.1 49 4.6 SW 24 39 13 21 1017.2 - 0.4
24/01:30pm 12.8 7.6 3.5 53 4.3 S 20 33 11 18 1017.2 - 0.4
24/01:00pm 12.7 6.9 6.3 65 3.1 S 26 43 14 23 1017.1 - 0.4
24/12:30pm 12.1 6.5 5.5 64 3.2 SSW 24 39 13 21 1017.0 - 0.4
24/12:00pm 12.6 6.7 5.8 63 3.3 SSW 26 44 14 24 1017.1 1016.6 0.4
24/11:30am 11.9 5.8 6.4 69 2.7 SSW 28 43 15 23 1017.1 - 0.4
24/11:00am 12.1 5.9 8.0 76 2.1 SW 30 41 16 22 1016.9 - 0.4
24/10:30am 11.4 5.5 7.5 77 1.9 SW 28 39 15 21 1016.6 - 0.4
24/10:06am 10.6 4.7 7.7 82 1.4 SW 28 46 15 25 1016.4 - 0.4
24/10:00am 10.4 5.4 8.2 86 1.1 SW 24 37 13 20 1016.3 - 0.4
24/09:43am 9.9 5.9 9.1 95 0.4 SW 20 32 11 17 1016.3 - 0.4
24/09:30am 9.4 5.6 9.1 98 0.2 SW 19 28 10 15 1016.2 - 0.4
24/09:25am 9.4 5.6 9.1 98 0.2 SW 19 28 10 15 1016.1 - 0.4
24/09:01am 9.8 5.7 7.9 88 0.9 W 19 32 10 17 1015.7 - 0.2
24/09:00am 9.8 5.7 7.9 88 0.9 W 19 32 10 17 1015.6 1015.1 0.0
24/08:56am 10.2 6.0 8.1 87 1.0 W 20 32 11 17 1015.5 - 0.0
24/08:30am 10.8 6.3 6.9 77 1.9 NW 20 26 11 14 1014.6 - 0.0
24/08:00am 10.3 5.3 6.5 77 1.8 NNW 22 26 12 14 1014.0 - 0.0
24/07:30am 10.1 4.9 5.7 74 2.1 NNW 22 30 12 16 1013.8 - 0.0
24/07:00am 8.6 3.3 5.0 78 1.7 NNW 22 30 12 16 1013.3 - 0.0
24/06:30am 7.8 2.2 3.7 75 1.8 N 22 30 12 16 1013.1 - 0.0
24/06:00am 7.6 1.3 4.0 78 1.6 N 26 32 14 17 1012.7 1012.1 0.0
24/05:30am 7.1 0.9 4.4 83 1.2 N 26 30 14 16 1012.2 - 0.0
24/05:00am 7.6 1.8 4.2 79 1.5 N 24 28 13 15 1012.4 - 0.0
24/04:30am 8.1 1.5 4.3 77 1.7 N 28 32 15 17 1011.9 - 0.0
24/04:00am 8.6 2.4 4.4 75 1.9 N 26 32 14 17 1012.0 - 0.0
24/03:30am 8.7 2.5 4.5 75 1.9 N 26 33 14 18 1011.9 - 0.0
24/03:00am 8.4 3.1 4.8 78 1.6 N 22 26 12 14 1012.3 1011.8 0.0
24/02:30am 8.6 3.8 4.4 75 1.9 N 19 22 10 12 1012.8 - 0.0
24/02:00am 9.3 4.5 4.7 73 2.1 N 19 20 10 11 1012.9 - 0.0
24/01:30am 9.6 5.2 4.6 71 2.3 N 17 19 9 10 1013.0 - 0.0
24/01:00am 9.8 5.3 4.4 69 2.5 N 17 20 9 11 1013.1 - 0.0
24/12:30am 9.9 5.8 4.3 68 2.6 N 15 19 8 10 1013.3 - 0.0
24/12:00am 10.1 5.6 4.3 67 2.7 N 17 20 9 11 1013.4 1012.9 0.0
 
Date/Time
EST
Temp
°C
App
Temp
°C
Dew
Point
Rel
Hum
%
Delta-T
°C
Wind Press
QNH
hPa
Press
MSL
hPa
Rain
since 9 am
mm
Dir
 
Spd
km/h
Gust
km/h
Spd
kts
Gust
kts
23/11:30pm 10.7 5.6 4.2 64 3.0 N 20 24 11 13 1013.7 - 0.0
23/11:00pm 11.5 5.3 4.3 61 3.3 N 26 30 14 16 1013.9 - 0.0
23/10:30pm 11.8 4.8 4.1 59 3.6 NNW 30 37 16 20 1013.8 - 0.0
23/10:00pm 11.6 5.7 3.9 59 3.5 NNW 24 30 13 16 1014.0 - 0.0
23/09:30pm 10.7 4.9 4.2 64 3.0 N 24 30 13 16 1014.1 - 0.0
23/09:00pm 10.6 6.1 4.1 64 3.0 N 17 20 9 11 1014.3 1013.8 0.0
23/08:30pm 11.8 4.7 3.6 57 3.8 NNW 30 33 16 18 1014.1 - 0.0
23/08:00pm 12.1 5.8 3.9 57 3.8 NNW 26 33 14 18 1014.3 - 0.0
23/07:30pm 11.7 5.9 4.4 61 3.4 NNW 24 28 13 15 1014.2 - 0.0
23/07:00pm 11.3 6.3 4.7 64 3.1 NNW 20 26 11 14 1014.2 - 0.0
23/06:30pm 11.9 7.1 4.9 62 3.3 NNW 19 22 10 12 1014.1 - 0.0
23/06:00pm 12.2 7.9 5.4 63 3.2 NNW 17 20 9 11 1014.3 1013.8 0.0
23/05:30pm 13.1 8.9 5.5 60 3.7 NNW 17 20 9 11 1014.2 - 0.0
23/05:00pm 13.8 9.0 4.9 55 4.3 N 19 24 10 13 1014.1 - 0.0
23/04:30pm 14.6 11.0 5.1 53 4.6 N 13 19 7 10 1014.2 - 0.0
23/04:00pm 15.9 11.7 4.0 45 5.7 NNW 15 19 8 10 1014.2 - 0.0
23/03:30pm 16.1 12.4 4.2 45 5.7 NNW 13 20 7 11 1014.2 - 0.0
23/03:00pm 16.1 12.7 3.9 44 5.8 NW 11 17 6 9 1014.1 1013.6 0.0
23/02:30pm 15.8 12.4 3.9 45 5.7 WNW 11 15 6 8 1014.4 - 0.0
23/02:00pm 16.0 12.6 3.8 44 5.8 WNW 11 17 6 9 1014.7 - 0.0
23/01:30pm 16.3 13.0 6.2 51 5.1 WNW 13 20 7 11 1015.0 - 0.0
23/01:00pm 15.7 11.0 5.3 50 5.1 W 19 22 10 12 1015.3 - 0.0
23/12:30pm 15.3 12.7 7.6 60 3.9 NW 11 17 6 9 1015.6 - 0.0
23/12:00pm 15.3 11.6 8.1 62 3.7 NNW 17 24 9 13 1016.1 1015.6 0.0
23/11:30am 15.1 11.8 7.9 62 3.7 NW 15 19 8 10 1016.4 - 0.0
23/11:00am 14.0 12.3 8.2 68 3.0 NNW 7 15 4 8 1016.7 - 0.0
23/10:30am 13.7 13.1 10.5 81 1.7 S 4 9 2 5 1017.1 - 0.0
23/10:00am 12.6 11.3 10.0 84 1.4 SE 7 9 4 5 1017.1 - 0.0
23/09:30am 11.4 10.5 10.6 95 0.4 S 6 7 3 4 1017.2 - 0.0
23/09:00am 10.4 9.2 10.4 100 0.0 SSW 7 9 4 5 1017.1 1016.6 0.4
23/08:30am 9.8 8.5 9.8 100 0.0 S 7 11 4 6 1016.9 - 0.4
23/08:00am 9.4 7.6 9.4 100 0.0 S 9 11 5 6 1016.7 - 0.4
23/07:30am 8.6 6.2 8.6 100 0.0 S 11 13 6 7 1016.4 - 0.4
23/07:00am 8.3 5.4 8.3 100 0.0 S 13 15 7 8 1016.2 - 0.2
23/06:52am 8.3 5.8 8.3 100 0.0 S 11 13 6 7 1016.2 - 0.2
23/06:41am 8.4 5.6 8.4 100 0.0 S 13 15 7 8 1016.2 - 0.2
23/06:40am 8.4 5.6 8.4 100 0.0 S 13 15 7 8 1016.2 - 0.2
23/06:30am 8.4 5.9 8.4 100 0.0 S 11 15 6 8 1016.2 - 0.2
23/06:06am 8.9 6.6 8.9 100 0.0 S 11 13 6 7 1016.3 - 0.2
23/06:00am 8.8 6.4 8.8 100 0.0 SSW 11 15 6 8 1016.4 1016.0 0.2
23/05:44am 8.6 6.2 8.6 100 0.0 SSW 11 13 6 7 1016.2 - 0.2
23/05:30am 9.3 7.1 9.3 100 0.0 S 11 15 6 8 1016.2 - 0.2
23/05:24am 9.4 7.2 9.4 100 0.0 S 11 15 6 8 1016.2 - 0.2
23/05:00am 9.0 5.9 9.0 100 0.0 S 15 17 8 9 1016.1 - 0.2
23/04:30am 9.2 6.2 9.2 100 0.0 S 15 17 8 9 1015.9 - 0.2
23/04:00am 9.5 6.9 9.5 100 0.0 S 13 19 7 10 1016.0 - 0.2
23/03:45am 9.7 6.8 9.7 100 0.0 S 15 19 8 10 1016.1 - 0.2
23/03:43am 9.7 6.8 9.7 100 0.0 S 15 19 8 10 1016.2 - 0.2
23/03:30am 9.7 6.8 9.7 100 0.0 S 15 20 8 11 1016.2 - 0.2
23/03:00am 9.5 6.6 9.5 100 0.0 S 15 19 8 10 1016.2 1015.7 0.2
23/02:30am 9.4 6.4 9.4 100 0.0 S 15 17 8 9 1016.2 - 0.2
23/02:00am 9.8 6.6 9.8 100 0.0 S 17 20 9 11 1016.6 - 0.2
23/01:30am 10.0 6.8 10.0 100 0.0 S 17 22 9 12 1016.8 - 0.2
23/01:00am 10.1 7.3 10.1 100 0.0 S 15 19 8 10 1017.0 - 0.2
23/12:30am 9.9 7.1 9.9 100 0.0 S 15 17 8 9 1017.1 - 0.2
23/12:00am 10.0 7.6 9.9 99 0.1 S 13 15 7 8 1017.3 1016.8 0.0
 
Date/Time
EST
Temp
°C
App
Temp
°C
Dew
Point
Rel
Hum
%
Delta-T
°C
Wind Press
QNH
hPa
Press
MSL
hPa
Rain
since 9 am
mm
Dir
 
Spd
km/h
Gust
km/h
Spd
kts
Gust
kts
22/11:30pm 10.1 7.7 10.1 100 0.0 S 13 17 7 9 1017.5 - 0.0
22/11:00pm 10.3 8.0 10.3 100 0.0 S 13 17 7 9 1017.7 - 0.0
22/10:30pm 10.8 7.8 10.8 100 0.0 S 17 22 9 12 1018.1 - 0.0
22/10:00pm 10.9 8.3 10.7 99 0.1 S 15 20 8 11 1018.1 - 0.0
22/09:30pm 10.8 7.8 10.6 99 0.1 S 17 24 9 13 1017.9 - 0.0
22/09:00pm 11.2 8.3 11.0 99 0.1 S 17 22 9 12 1017.7 1017.2 0.0
22/08:30pm 11.9 9.6 11.7 99 0.1 S 15 20 8 11 1017.5 - 0.0
22/08:04pm 11.8 9.4 11.5 98 0.2 S 15 19 8 10 1017.3 - 0.0
22/08:00pm 11.9 9.9 11.4 97 0.3 S 13 19 7 10 1017.3 - 0.0
22/07:30pm 12.6 11.3 11.2 91 0.8 S 9 13 5 7 1017.1 - 0.0
22/07:00pm 12.6 11.7 11.2 91 0.8 S 7 11 4 6 1016.8 - 0.0
22/06:30pm 12.6 11.4 11.5 93 0.6 S 9 13 5 7 1016.7 - 0.0
22/06:00pm 12.8 11.0 10.9 88 1.0 W 11 13 6 7 1016.4 1016.0 0.0
22/05:30pm 13.1 10.5 10.6 85 1.3 NNW 15 17 8 9 1016.0 - 0.0
22/05:00pm 13.1 9.7 10.6 85 1.3 N 19 22 10 12 1015.7 - 0.0
22/04:30pm 13.1 9.1 10.6 85 1.3 N 22 28 12 15 1015.4 - 0.0
22/04:00pm 13.2 9.6 10.6 84 1.4 N 20 26 11 14 1015.5 - 0.0
22/03:30pm 13.1 9.1 10.5 84 1.4 N 22 26 12 14 1015.5 - 0.0
22/03:00pm 12.8 8.8 10.3 85 1.3 N 22 28 12 15 1015.2 1014.7 0.0
22/02:30pm 13.3 9.1 9.9 80 1.8 N 22 28 12 15 1015.1 - 0.0
22/02:00pm 13.6 10.6 10.8 83 1.5 N 17 24 9 13 1015.2 - 0.0
22/01:30pm 13.1 9.4 10.1 82 1.6 N 20 26 11 14 1015.2 - 0.0
22/01:00pm 13.1 9.6 10.1 82 1.6 N 19 28 10 15 1015.4 - 0.0
22/12:30pm 12.8 8.3 10.0 83 1.5 N 24 35 13 19 1015.3 - 0.0
22/12:00pm 12.6 7.0 10.3 86 1.2 N 30 37 16 20 1015.6 1015.1 0.0
22/11:30am 11.8 5.6 9.4 85 1.2 N 32 41 17 22 1015.6 - 0.0
22/11:00am 11.0 3.3 8.8 86 1.1 N 39 48 21 26 1015.8 - 0.0
22/10:30am 10.8 4.3 9.1 89 0.9 N 33 48 18 26 1016.6 - 0.0
22/10:00am 10.7 4.9 9.5 92 0.6 N 30 37 16 20 1016.3 - 0.0
22/09:30am 10.2 3.2 8.5 89 0.9 N 35 44 19 24 1016.6 - 0.0
22/09:04am 10.1 2.3 8.4 89 0.9 N 39 48 21 26 1016.0 - 0.0
22/09:00am 9.9 2.2 8.5 91 0.7 N 39 48 21 26 1016.0 1015.5 1.2
22/08:42am 9.9 1.7 8.2 89 0.8 N 41 50 22 27 1016.4 - 0.4
22/08:30am 10.2 2.3 7.8 85 1.2 N 39 48 21 26 1016.2 - 0.0
22/08:00am 11.3 3.2 6.8 74 2.2 N 39 48 21 26 1016.0 - 0.0
22/07:30am 11.1 3.3 6.8 75 2.1 N 37 48 20 26 1015.9 - 0.0
22/07:00am 11.0 3.2 6.7 75 2.1 N 37 48 20 26 1016.4 - 0.0
22/06:30am 11.2 3.4 6.5 73 2.3 N 37 44 20 24 1016.6 - 0.0
22/06:00am 11.2 3.3 6.3 72 2.4 N 37 46 20 25 1016.6 1016.1 0.0
22/05:30am 11.6 3.7 6.1 69 2.7 N 37 48 20 26 1016.2 - 0.0
22/05:00am 11.5 1.8 5.8 68 2.7 N 46 56 25 30 1014.7 - 0.0
22/04:30am 11.3 2.1 5.6 68 2.7 N 43 54 23 29 1014.8 - 0.0
22/04:00am 11.6 3.2 5.7 67 2.8 N 39 54 21 29 1014.8 - 0.0
22/03:30am 11.8 3.4 5.4 65 3.0 N 39 48 21 26 1014.3 - 0.0
22/03:00am 12.0 3.6 5.6 65 3.1 N 39 52 21 28 1014.7 1014.1 0.0
22/02:30am 11.9 3.5 5.8 66 2.9 N 39 46 21 25 1015.0 - 0.0
22/02:00am 11.5 4.3 5.8 68 2.7 N 33 39 18 21 1015.4 - 0.0
22/01:30am 11.5 4.5 5.8 68 2.7 N 32 37 17 20 1015.6 - 0.0
22/01:00am 11.5 4.3 5.8 68 2.7 N 33 41 18 22 1015.7 - 0.0
22/12:30am 11.5 3.9 5.6 67 2.8 N 35 43 19 23 1015.9 - 0.0
22/12:00am 11.9 3.5 5.5 65 3.1 N 39 44 21 24 1016.0 1015.5 0.0

Other Formats:

Comma delimited format used in spreadsheet applications
http://www.bom.gov.au/fwo/IDV60801/IDV60801.94860.axf

JavaScript Object Notation format (JSON) in row-major order
http://www.bom.gov.au/fwo/IDV60801/IDV60801.94860.json